sensor_id;sensor_type;location;lat;lon;timestamp;pressure;altitude;pressure_sealevel;temperature;humidity
8298;BME280;4187;42.778;23.242;2023-02-18T00:00:29;96030.44;;;3.22;83.71
8298;BME280;4187;42.778;23.242;2023-02-18T00:02:56;96056.22;;;3.28;83.18
8298;BME280;4187;42.778;23.242;2023-02-18T00:05:23;96047.97;;;3.20;83.75
8298;BME280;4187;42.778;23.242;2023-02-18T00:07:50;96046.19;;;3.20;85.37
8298;BME280;4187;42.778;23.242;2023-02-18T00:10:17;96029.97;;;3.15;86.06
8298;BME280;4187;42.778;23.242;2023-02-18T00:12:46;96036.09;;;3.14;84.65
8298;BME280;4187;42.778;23.242;2023-02-18T00:15:12;96040.38;;;2.99;82.55
8298;BME280;4187;42.778;23.242;2023-02-18T00:17:39;96029.72;;;2.87;83.37
8298;BME280;4187;42.778;23.242;2023-02-18T00:20:07;96028.47;;;2.78;85.22
8298;BME280;4187;42.778;23.242;2023-02-18T00:22:33;96020.69;;;2.77;84.71
8298;BME280;4187;42.778;23.242;2023-02-18T00:25:00;96019.63;;;2.81;84.40
8298;BME280;4187;42.778;23.242;2023-02-18T00:27:27;96001.25;;;2.67;84.77
8298;BME280;4187;42.778;23.242;2023-02-18T00:29:57;96012.81;;;2.78;85.10
8298;BME280;4187;42.778;23.242;2023-02-18T00:32:24;95995.44;;;2.62;86.59
8298;BME280;4187;42.778;23.242;2023-02-18T00:34:50;95986.41;;;2.52;87.52
8298;BME280;4187;42.778;23.242;2023-02-18T00:37:17;96002.94;;;2.68;88.54
8298;BME280;4187;42.778;23.242;2023-02-18T00:39:44;96008.59;;;2.76;88.28
8298;BME280;4187;42.778;23.242;2023-02-18T00:42:11;96005.16;;;2.75;88.48
8298;BME280;4187;42.778;23.242;2023-02-18T00:44:39;95980.97;;;2.56;88.72
8298;BME280;4187;42.778;23.242;2023-02-18T00:47:07;95970.97;;;2.49;89.04
8298;BME280;4187;42.778;23.242;2023-02-18T00:49:34;95986.94;;;2.58;89.27
8298;BME280;4187;42.778;23.242;2023-02-18T00:52:01;95999.13;;;2.58;90.14
8298;BME280;4187;42.778;23.242;2023-02-18T00:54:28;95982.00;;;2.36;90.20
8298;BME280;4187;42.778;23.242;2023-02-18T00:56:55;95987.56;;;2.46;90.27
8298;BME280;4187;42.778;23.242;2023-02-18T00:59:21;95992.25;;;2.39;90.59
8298;BME280;4187;42.778;23.242;2023-02-18T01:01:48;95998.47;;;2.37;90.16
8298;BME280;4187;42.778;23.242;2023-02-18T01:04:17;95990.13;;;2.30;90.06
8298;BME280;4187;42.778;23.242;2023-02-18T01:06:44;95995.19;;;2.33;90.25
8298;BME280;4187;42.778;23.242;2023-02-18T01:09:11;95995.94;;;2.35;90.82
8298;BME280;4187;42.778;23.242;2023-02-18T01:11:38;95983.69;;;2.37;91.50
8298;BME280;4187;42.778;23.242;2023-02-18T01:14:05;95991.25;;;2.42;92.38
8298;BME280;4187;42.778;23.242;2023-02-18T01:16:32;95986.91;;;2.42;93.35
8298;BME280;4187;42.778;23.242;2023-02-18T01:18:58;95985.75;;;2.48;93.66
8298;BME280;4187;42.778;23.242;2023-02-18T01:21:27;95987.19;;;2.54;91.83
8298;BME280;4187;42.778;23.242;2023-02-18T01:23:54;95985.34;;;2.38;91.47
8298;BME280;4187;42.778;23.242;2023-02-18T01:26:20;95981.84;;;2.22;92.89
8298;BME280;4187;42.778;23.242;2023-02-18T01:28:47;95976.66;;;2.22;95.24
8298;BME280;4187;42.778;23.242;2023-02-18T01:31:14;95969.53;;;2.26;95.25
8298;BME280;4187;42.778;23.242;2023-02-18T01:33:41;95961.03;;;2.22;95.34
8298;BME280;4187;42.778;23.242;2023-02-18T01:36:10;95986.00;;;2.26;95.58
8298;BME280;4187;42.778;23.242;2023-02-18T01:38:38;95981.84;;;2.22;95.15
8298;BME280;4187;42.778;23.242;2023-02-18T01:41:05;95966.53;;;2.16;95.47
8298;BME280;4187;42.778;23.242;2023-02-18T01:43:32;95987.50;;;2.30;96.83
8298;BME280;4187;42.778;23.242;2023-02-18T01:46:05;95989.81;;;2.36;97.89
8298;BME280;4187;42.778;23.242;2023-02-18T01:48:35;95994.78;;;2.41;97.75
8298;BME280;4187;42.778;23.242;2023-02-18T01:51:09;95936.69;;;2.23;98.22
8298;BME280;4187;42.778;23.242;2023-02-18T01:53:43;95991.63;;;2.52;96.69
8298;BME280;4187;42.778;23.242;2023-02-18T01:56:15;95986.75;;;2.46;96.90
8298;BME280;4187;42.778;23.242;2023-02-18T01:58:44;95994.16;;;2.53;97.45
8298;BME280;4187;42.778;23.242;2023-02-18T02:01:11;95932.59;;;2.35;98.00
8298;BME280;4187;42.778;23.242;2023-02-18T02:03:38;95980.88;;;2.58;98.45
8298;BME280;4187;42.778;23.242;2023-02-18T02:06:11;95988.53;;;2.61;98.71
8298;BME280;4187;42.778;23.242;2023-02-18T02:08:41;95985.31;;;2.73;98.24
8298;BME280;4187;42.778;23.242;2023-02-18T02:11:20;95979.91;;;2.76;97.82
8298;BME280;4187;42.778;23.242;2023-02-18T02:16:55;95993.50;;;2.98;95.85
8298;BME280;4187;42.778;23.242;2023-02-18T02:25:49;95979.13;;;2.91;94.03
8298;BME280;4187;42.778;23.242;2023-02-18T02:28:58;95988.28;;;2.98;94.16
8298;BME280;4187;42.778;23.242;2023-02-18T02:31:48;95989.06;;;3.00;93.86
8298;BME280;4187;42.778;23.242;2023-02-18T02:34:32;95964.81;;;2.82;94.41
8298;BME280;4187;42.778;23.242;2023-02-18T02:37:09;95959.00;;;2.93;93.32
8298;BME280;4187;42.778;23.242;2023-02-18T02:39:44;95962.00;;;3.03;92.48
8298;BME280;4187;42.778;23.242;2023-02-18T02:42:17;95981.75;;;3.07;91.53
8298;BME280;4187;42.778;23.242;2023-02-18T02:44:53;95975.84;;;3.03;90.67
8298;BME280;4187;42.778;23.242;2023-02-18T02:47:26;95974.66;;;2.93;90.54
8298;BME280;4187;42.778;23.242;2023-02-18T02:50:00;95983.16;;;2.81;91.27
8298;BME280;4187;42.778;23.242;2023-02-18T02:52:30;95991.03;;;2.79;92.61
8298;BME280;4187;42.778;23.242;2023-02-18T02:54:58;95965.94;;;2.61;94.16
8298;BME280;4187;42.778;23.242;2023-02-18T02:57:46;95976.25;;;2.80;95.48
8298;BME280;4187;42.778;23.242;2023-02-18T03:00:15;95971.63;;;2.85;95.37
8298;BME280;4187;42.778;23.242;2023-02-18T03:02:57;95973.38;;;2.84;95.31
8298;BME280;4187;42.778;23.242;2023-02-18T03:05:38;95982.13;;;2.83;95.63
8298;BME280;4187;42.778;23.242;2023-02-18T03:08:21;95984.97;;;2.79;96.12
8298;BME280;4187;42.778;23.242;2023-02-18T03:10:56;95996.09;;;2.82;96.18
8298;BME280;4187;42.778;23.242;2023-02-18T03:13:35;95972.59;;;2.67;96.29
8298;BME280;4187;42.778;23.242;2023-02-18T03:16:13;95962.75;;;2.56;97.57
8298;BME280;4187;42.778;23.242;2023-02-18T03:18:47;95985.47;;;2.70;97.83
8298;BME280;4187;42.778;23.242;2023-02-18T03:21:22;96009.38;;;2.78;98.40
8298;BME280;4187;42.778;23.242;2023-02-18T03:23:52;95998.41;;;2.71;98.94
8298;BME280;4187;42.778;23.242;2023-02-18T03:26:23;96005.47;;;2.69;100.00
8298;BME280;4187;42.778;23.242;2023-02-18T03:28:52;96017.22;;;2.61;100.00
8298;BME280;4187;42.778;23.242;2023-02-18T03:31:24;96020.19;;;2.70;100.00
8298;BME280;4187;42.778;23.242;2023-02-18T03:33:54;95942.78;;;2.22;100.00
8298;BME280;4187;42.778;23.242;2023-02-18T03:36:25;95987.56;;;2.46;100.00
8298;BME280;4187;42.778;23.242;2023-02-18T03:38:55;96024.78;;;2.65;100.00
8298;BME280;4187;42.778;23.242;2023-02-18T03:41:24;96015.59;;;2.58;100.00
8298;BME280;4187;42.778;23.242;2023-02-18T03:43:52;96013.31;;;2.52;100.00
8298;BME280;4187;42.778;23.242;2023-02-18T03:46:19;96020.91;;;2.57;100.00
8298;BME280;4187;42.778;23.242;2023-02-18T03:48:46;96025.44;;;2.53;100.00
8298;BME280;4187;42.778;23.242;2023-02-18T03:51:13;96018.13;;;2.60;100.00
8298;BME280;4187;42.778;23.242;2023-02-18T03:53:41;96011.94;;;2.62;100.00
8298;BME280;4187;42.778;23.242;2023-02-18T03:56:08;96014.78;;;2.73;100.00
8298;BME280;4187;42.778;23.242;2023-02-18T03:58:35;96014.88;;;2.89;100.00
8298;BME280;4187;42.778;23.242;2023-02-18T04:01:02;95989.44;;;2.92;100.00
8298;BME280;4187;42.778;23.242;2023-02-18T04:03:29;96016.81;;;3.17;97.76
8298;BME280;4187;42.778;23.242;2023-02-18T04:05:56;96021.47;;;3.27;97.34
8298;BME280;4187;42.778;23.242;2023-02-18T04:08:23;96016.94;;;3.31;96.70
8298;BME280;4187;42.778;23.242;2023-02-18T04:10:51;95978.47;;;3.19;96.05
8298;BME280;4187;42.778;23.242;2023-02-18T04:13:18;96009.19;;;3.45;94.44
8298;BME280;4187;42.778;23.242;2023-02-18T04:15:47;95999.34;;;3.50;92.76
8298;BME280;4187;42.778;23.242;2023-02-18T04:18:15;95996.81;;;3.48;91.64
8298;BME280;4187;42.778;23.242;2023-02-18T04:20:42;95990.41;;;3.38;93.16
8298;BME280;4187;42.778;23.242;2023-02-18T04:23:09;95979.56;;;3.30;92.21
8298;BME280;4187;42.778;23.242;2023-02-18T04:25:35;95993.19;;;3.35;92.08
8298;BME280;4187;42.778;23.242;2023-02-18T04:28:04;95986.03;;;3.23;93.03
8298;BME280;4187;42.778;23.242;2023-02-18T04:30:31;95957.78;;;3.00;92.63
8298;BME280;4187;42.778;23.242;2023-02-18T04:32:58;96000.00;;;3.07;94.73
8298;BME280;4187;42.778;23.242;2023-02-18T04:35:25;95985.09;;;2.93;96.85
8298;BME280;4187;42.778;23.242;2023-02-18T04:37:52;95999.94;;;2.75;98.59
8298;BME280;4187;42.778;23.242;2023-02-18T04:40:19;95991.69;;;2.67;100.00
8298;BME280;4187;42.778;23.242;2023-02-18T04:42:45;96001.09;;;2.70;100.00
8298;BME280;4187;42.778;23.242;2023-02-18T04:45:14;96003.81;;;2.84;100.00
8298;BME280;4187;42.778;23.242;2023-02-18T04:47:40;96007.34;;;2.83;100.00
8298;BME280;4187;42.778;23.242;2023-02-18T04:50:08;96016.94;;;2.82;100.00
8298;BME280;4187;42.778;23.242;2023-02-18T04:52:35;96015.63;;;2.91;100.00
8298;BME280;4187;42.778;23.242;2023-02-18T04:55:02;96024.34;;;2.90;100.00
8298;BME280;4187;42.778;23.242;2023-02-18T04:57:28;96028.66;;;2.91;100.00
8298;BME280;4187;42.778;23.242;2023-02-18T04:59:55;96026.94;;;2.90;100.00
8298;BME280;4187;42.778;23.242;2023-02-18T05:02:23;96030.94;;;2.97;100.00
8298;BME280;4187;42.778;23.242;2023-02-18T05:04:50;96021.31;;;2.97;100.00
8298;BME280;4187;42.778;23.242;2023-02-18T05:07:17;96012.69;;;2.97;100.00
8298;BME280;4187;42.778;23.242;2023-02-18T05:09:44;96002.00;;;3.01;100.00
8298;BME280;4187;42.778;23.242;2023-02-18T05:12:11;96012.19;;;3.06;100.00
8298;BME280;4187;42.778;23.242;2023-02-18T05:14:38;96006.91;;;3.08;100.00
8298;BME280;4187;42.778;23.242;2023-02-18T05:17:04;96015.31;;;3.13;100.00
8298;BME280;4187;42.778;23.242;2023-02-18T05:19:33;96010.53;;;3.21;100.00
8298;BME280;4187;42.778;23.242;2023-02-18T05:21:59;96005.56;;;3.16;100.00
8298;BME280;4187;42.778;23.242;2023-02-18T05:24:26;95990.56;;;3.20;100.00
8298;BME280;4187;42.778;23.242;2023-02-18T05:26:53;95996.66;;;3.20;100.00
8298;BME280;4187;42.778;23.242;2023-02-18T05:29:20;95998.34;;;3.21;99.72
8298;BME280;4187;42.778;23.242;2023-02-18T05:31:47;96001.69;;;3.23;99.92
8298;BME280;4187;42.778;23.242;2023-02-18T05:34:14;96010.44;;;3.22;100.00
8298;BME280;4187;42.778;23.242;2023-02-18T05:36:42;95987.81;;;3.23;99.93
8298;BME280;4187;42.778;23.242;2023-02-18T05:39:09;95993.72;;;3.26;100.00
8298;BME280;4187;42.778;23.242;2023-02-18T05:41:35;95994.47;;;3.28;99.38
8298;BME280;4187;42.778;23.242;2023-02-18T05:44:02;96004.38;;;3.22;100.00
8298;BME280;4187;42.778;23.242;2023-02-18T05:46:47;96025.00;;;3.26;100.00
8298;BME280;4187;42.778;23.242;2023-02-18T05:49:13;96018.53;;;3.33;100.00
8298;BME280;4187;42.778;23.242;2023-02-18T05:51:41;96019.91;;;3.40;100.00
8298;BME280;4187;42.778;23.242;2023-02-18T05:54:08;96028.38;;;3.44;100.00
8298;BME280;4187;42.778;23.242;2023-02-18T05:56:35;95985.03;;;3.26;100.00
8298;BME280;4187;42.778;23.242;2023-02-18T05:59:02;96013.22;;;3.50;99.52
8298;BME280;4187;42.778;23.242;2023-02-18T06:01:30;96012.47;;;3.64;98.99
8298;BME280;4187;42.778;23.242;2023-02-18T06:03:57;96013.63;;;3.74;98.45
8298;BME280;4187;42.778;23.242;2023-02-18T06:06:24;96019.53;;;3.78;97.77
8298;BME280;4187;42.778;23.242;2023-02-18T06:08:52;96040.41;;;3.93;97.78
8298;BME280;4187;42.778;23.242;2023-02-18T06:11:19;96027.16;;;3.96;99.49
8298;BME280;4187;42.778;23.242;2023-02-18T06:13:46;96041.47;;;4.05;98.98
8298;BME280;4187;42.778;23.242;2023-02-18T06:16:12;96028.59;;;4.02;99.27
8298;BME280;4187;42.778;23.242;2023-02-18T06:18:39;95961.03;;;3.66;100.00
8298;BME280;4187;42.778;23.242;2023-02-18T06:21:06;96012.03;;;4.17;98.05
8298;BME280;4187;42.778;23.242;2023-02-18T06:23:33;95998.34;;;4.28;94.76
8298;BME280;4187;42.778;23.242;2023-02-18T06:26:01;96009.75;;;4.41;93.75
8298;BME280;4187;42.778;23.242;2023-02-18T06:28:28;96013.44;;;4.52;92.88
8298;BME280;4187;42.778;23.242;2023-02-18T06:30:55;96013.19;;;4.57;94.42
8298;BME280;4187;42.778;23.242;2023-02-18T06:33:21;96008.03;;;4.69;95.78
8298;BME280;4187;42.778;23.242;2023-02-18T06:35:53;96009.47;;;4.75;95.81
8298;BME280;4187;42.778;23.242;2023-02-18T06:38:20;96018.03;;;4.77;95.42
8298;BME280;4187;42.778;23.242;2023-02-18T06:40:46;96011.78;;;4.79;95.30
8298;BME280;4187;42.778;23.242;2023-02-18T06:43:15;96002.06;;;4.81;95.79
8298;BME280;4187;42.778;23.242;2023-02-18T06:45:42;95996.28;;;4.76;96.90
8298;BME280;4187;42.778;23.242;2023-02-18T06:48:08;95997.03;;;4.78;96.86
8298;BME280;4187;42.778;23.242;2023-02-18T06:50:35;96000.31;;;4.82;97.10
8298;BME280;4187;42.778;23.242;2023-02-18T06:53:03;95993.69;;;4.91;96.49
8298;BME280;4187;42.778;23.242;2023-02-18T06:55:29;96000.31;;;5.10;95.29
8298;BME280;4187;42.778;23.242;2023-02-18T06:57:56;96012.00;;;5.19;94.92
8298;BME280;4187;42.778;23.242;2023-02-18T07:00:24;96011.50;;;5.26;93.66
8298;BME280;4187;42.778;23.242;2023-02-18T07:02:51;96000.38;;;5.37;92.28
8298;BME280;4187;42.778;23.242;2023-02-18T07:05:18;95995.84;;;5.53;89.13
8298;BME280;4187;42.778;23.242;2023-02-18T07:07:45;96004.59;;;5.66;88.90
8298;BME280;4187;42.778;23.242;2023-02-18T07:10:12;96009.88;;;5.79;89.01
8298;BME280;4187;42.778;23.242;2023-02-18T07:12:38;96013.47;;;5.92;88.84
8298;BME280;4187;42.778;23.242;2023-02-18T07:15:06;96011.63;;;6.07;88.59
8298;BME280;4187;42.778;23.242;2023-02-18T07:17:34;96006.91;;;6.12;88.01
8298;BME280;4187;42.778;23.242;2023-02-18T07:20:00;96006.97;;;6.24;87.97
8298;BME280;4187;42.778;23.242;2023-02-18T07:22:27;96008.13;;;8.43;96.54
8298;BME280;4187;42.778;23.242;2023-02-18T07:24:54;95998.59;;;9.54;80.42
8298;BME280;4187;42.778;23.242;2023-02-18T07:27:21;96012.59;;;10.31;69.24
8298;BME280;4187;42.778;23.242;2023-02-18T07:29:48;96015.78;;;10.45;62.71
8298;BME280;4187;42.778;23.242;2023-02-18T07:32:16;96012.91;;;10.90;60.31
8298;BME280;4187;42.778;23.242;2023-02-18T07:34:45;96015.16;;;11.15;54.53
8298;BME280;4187;42.778;23.242;2023-02-18T07:37:12;96020.75;;;10.59;54.36
8298;BME280;4187;42.778;23.242;2023-02-18T07:39:39;96025.22;;;10.05;56.62
8298;BME280;4187;42.778;23.242;2023-02-18T07:42:06;96012.47;;;9.56;57.41
8298;BME280;4187;42.778;23.242;2023-02-18T07:44:34;96029.81;;;9.25;57.46
8298;BME280;4187;42.778;23.242;2023-02-18T07:47:01;96026.78;;;8.85;58.42
8298;BME280;4187;42.778;23.242;2023-02-18T07:49:28;96011.22;;;8.82;59.38
8298;BME280;4187;42.778;23.242;2023-02-18T07:51:56;96016.56;;;8.70;59.90
8298;BME280;4187;42.778;23.242;2023-02-18T07:54:23;96015.13;;;8.66;60.53
8298;BME280;4187;42.778;23.242;2023-02-18T07:56:50;96020.75;;;8.72;63.79
8298;BME280;4187;42.778;23.242;2023-02-18T07:59:18;96018.41;;;8.80;61.18
8298;BME280;4187;42.778;23.242;2023-02-18T08:01:44;96022.72;;;8.92;60.44
8298;BME280;4187;42.778;23.242;2023-02-18T08:04:11;96013.19;;;9.02;59.77
8298;BME280;4187;42.778;23.242;2023-02-18T08:06:41;95999.88;;;9.04;59.35
8298;BME280;4187;42.778;23.242;2023-02-18T08:09:09;96004.91;;;9.07;60.53
8298;BME280;4187;42.778;23.242;2023-02-18T08:11:36;96012.59;;;9.21;61.35
8298;BME280;4187;42.778;23.242;2023-02-18T08:14:03;96010.66;;;9.23;59.58
8298;BME280;4187;42.778;23.242;2023-02-18T08:16:30;95998.44;;;9.22;60.35
8298;BME280;4187;42.778;23.242;2023-02-18T08:18:57;96001.56;;;9.27;60.42
8298;BME280;4187;42.778;23.242;2023-02-18T08:21:24;96001.69;;;9.37;60.86
8298;BME280;4187;42.778;23.242;2023-02-18T08:23:52;95967.59;;;9.24;60.19
8298;BME280;4187;42.778;23.242;2023-02-18T08:26:20;95988.75;;;9.45;59.17
8298;BME280;4187;42.778;23.242;2023-02-18T08:28:47;95995.09;;;9.53;58.82
8298;BME280;4187;42.778;23.242;2023-02-18T08:31:16;95978.09;;;9.46;59.38
8298;BME280;4187;42.778;23.242;2023-02-18T08:33:43;95987.06;;;9.55;60.14
8298;BME280;4187;42.778;23.242;2023-02-18T08:36:10;95987.31;;;9.63;58.96
8298;BME280;4187;42.778;23.242;2023-02-18T08:38:37;95985.38;;;9.65;59.27
8298;BME280;4187;42.778;23.242;2023-02-18T08:41:07;96003.00;;;9.76;58.83
8298;BME280;4187;42.778;23.242;2023-02-18T08:43:36;95999.16;;;9.80;59.94
8298;BME280;4187;42.778;23.242;2023-02-18T08:46:03;95995.19;;;9.85;59.78
8298;BME280;4187;42.778;23.242;2023-02-18T08:48:30;95993.38;;;9.97;61.33
8298;BME280;4187;42.778;23.242;2023-02-18T08:50:58;95989.97;;;10.06;61.54
8298;BME280;4187;42.778;23.242;2023-02-18T08:53:25;95998.72;;;10.17;60.25
8298;BME280;4187;42.778;23.242;2023-02-18T08:55:52;95988.63;;;10.23;59.57
8298;BME280;4187;42.778;23.242;2023-02-18T08:58:18;95985.56;;;10.38;55.17
8298;BME280;4187;42.778;23.242;2023-02-18T09:00:47;95993.13;;;10.43;54.58
8298;BME280;4187;42.778;23.242;2023-02-18T09:03:14;95989.84;;;10.50;55.74
8298;BME280;4187;42.778;23.242;2023-02-18T09:05:41;95989.19;;;10.58;54.67
8298;BME280;4187;42.778;23.242;2023-02-18T09:08:08;95985.22;;;10.63;53.64
8298;BME280;4187;42.778;23.242;2023-02-18T09:10:35;95985.59;;;10.79;49.80
8298;BME280;4187;42.778;23.242;2023-02-18T09:13:03;95983.28;;;10.86;49.14
8298;BME280;4187;42.778;23.242;2023-02-18T09:15:30;95981.31;;;11.09;48.13
8298;BME280;4187;42.778;23.242;2023-02-18T09:17:58;95977.03;;;11.38;48.62
8298;BME280;4187;42.778;23.242;2023-02-18T09:20:26;95953.97;;;11.50;46.99
8298;BME280;4187;42.778;23.242;2023-02-18T09:22:53;95986.16;;;12.04;46.58
8298;BME280;4187;42.778;23.242;2023-02-18T09:25:20;95991.38;;;12.34;43.99
8298;BME280;4187;42.778;23.242;2023-02-18T09:27:47;95982.03;;;12.59;43.68
8298;BME280;4187;42.778;23.242;2023-02-18T09:30:14;95962.78;;;12.76;42.55
8298;BME280;4187;42.778;23.242;2023-02-18T09:32:41;95979.19;;;13.08;41.87
8298;BME280;4187;42.778;23.242;2023-02-18T09:35:09;95985.16;;;13.30;40.14
8298;BME280;4187;42.778;23.242;2023-02-18T09:37:36;95973.31;;;13.61;40.56
8298;BME280;4187;42.778;23.242;2023-02-18T09:40:05;95979.41;;;13.98;38.63
8298;BME280;4187;42.778;23.242;2023-02-18T09:42:33;95979.28;;;14.17;38.85
8298;BME280;4187;42.778;23.242;2023-02-18T09:45:03;95961.00;;;14.14;38.09
8298;BME280;4187;42.778;23.242;2023-02-18T09:47:34;95973.56;;;14.22;38.56
8298;BME280;4187;42.778;23.242;2023-02-18T09:50:05;95966.19;;;14.16;38.49
8298;BME280;4187;42.778;23.242;2023-02-18T09:52:35;95974.19;;;14.06;38.85
8298;BME280;4187;42.778;23.242;2023-02-18T09:55:15;95973.69;;;14.20;36.20
8298;BME280;4187;42.778;23.242;2023-02-18T09:57:46;95978.28;;;14.63;35.72
8298;BME280;4187;42.778;23.242;2023-02-18T10:00:17;95975.03;;;15.13;34.32
8298;BME280;4187;42.778;23.242;2023-02-18T10:02:53;95963.66;;;15.46;34.43
8298;BME280;4187;42.778;23.242;2023-02-18T10:05:22;95967.16;;;15.88;33.54
8298;BME280;4187;42.778;23.242;2023-02-18T10:07:53;95960.91;;;16.05;33.19
8298;BME280;4187;42.778;23.242;2023-02-18T10:10:27;95965.44;;;16.21;32.67
8298;BME280;4187;42.778;23.242;2023-02-18T10:12:57;95962.66;;;16.39;32.22
8298;BME280;4187;42.778;23.242;2023-02-18T10:15:28;95940.13;;;16.25;32.57
8298;BME280;4187;42.778;23.242;2023-02-18T10:17:57;95938.22;;;16.51;32.52
8298;BME280;4187;42.778;23.242;2023-02-18T10:20:27;95922.06;;;16.53;31.91
8298;BME280;4187;42.778;23.242;2023-02-18T10:22:58;95957.38;;;16.71;31.68
8298;BME280;4187;42.778;23.242;2023-02-18T10:25:27;95949.22;;;16.64;31.58
8298;BME280;4187;42.778;23.242;2023-02-18T10:27:55;95947.75;;;16.78;32.25
8298;BME280;4187;42.778;23.242;2023-02-18T10:30:30;95942.09;;;16.89;31.65
8298;BME280;4187;42.778;23.242;2023-02-18T10:33:10;95938.03;;;17.17;31.05
8298;BME280;4187;42.778;23.242;2023-02-18T10:35:52;95930.47;;;17.45;31.01
8298;BME280;4187;42.778;23.242;2023-02-18T10:38:28;95891.78;;;17.41;29.96
8298;BME280;4187;42.778;23.242;2023-02-18T10:41:06;95932.50;;;17.90;29.66
8298;BME280;4187;42.778;23.242;2023-02-18T10:43:39;95940.72;;;17.88;29.93
8298;BME280;4187;42.778;23.242;2023-02-18T10:46:14;95935.63;;;18.02;35.49
8298;BME280;4187;42.778;23.242;2023-02-18T10:48:53;95926.53;;;18.19;30.54
8298;BME280;4187;42.778;23.242;2023-02-18T10:51:25;95927.66;;;17.93;33.30
8298;BME280;4187;42.778;23.242;2023-02-18T10:53:55;95921.03;;;17.26;30.13
8298;BME280;4187;42.778;23.242;2023-02-18T10:56:34;95922.06;;;16.53;31.12
8298;BME280;4187;42.778;23.242;2023-02-18T10:59:09;95912.22;;;16.37;34.85
8298;BME280;4187;42.778;23.242;2023-02-18T11:01:36;95917.91;;;16.91;42.47
8298;BME280;4187;42.778;23.242;2023-02-18T11:04:06;95922.53;;;17.29;34.06
8298;BME280;4187;42.778;23.242;2023-02-18T11:06:38;95912.72;;;17.21;39.04
8298;BME280;4187;42.778;23.242;2023-02-18T11:09:27;95897.78;;;17.59;34.62
8298;BME280;4187;42.778;23.242;2023-02-18T11:12:01;95898.63;;;17.52;32.27
8298;BME280;4187;42.778;23.242;2023-02-18T11:14:40;95891.16;;;17.31;32.41
8298;BME280;4187;42.778;23.242;2023-02-18T11:17:15;95889.84;;;17.27;32.80
8298;BME280;4187;42.778;23.242;2023-02-18T11:19:45;95892.84;;;17.24;32.96
8298;BME280;4187;42.778;23.242;2023-02-18T11:22:19;95876.66;;;17.25;34.43
8298;BME280;4187;42.778;23.242;2023-02-18T11:24:53;95884.78;;;17.48;33.43
8298;BME280;4187;42.778;23.242;2023-02-18T11:27:23;95832.69;;;17.21;32.84
8298;BME280;4187;42.778;23.242;2023-02-18T11:29:53;95872.28;;;17.57;33.65
8298;BME280;4187;42.778;23.242;2023-02-18T11:32:21;95869.31;;;17.82;33.34
8298;BME280;4187;42.778;23.242;2023-02-18T11:34:51;95867.44;;;17.91;32.02
8298;BME280;4187;42.778;23.242;2023-02-18T11:37:19;95861.09;;;17.92;32.29
8298;BME280;4187;42.778;23.242;2023-02-18T11:39:50;95852.34;;;17.98;32.35
8298;BME280;4187;42.778;23.242;2023-02-18T11:42:20;95852.97;;;18.08;31.88
8298;BME280;4187;42.778;23.242;2023-02-18T11:44:51;95846.91;;;18.14;31.70
8298;BME280;4187;42.778;23.242;2023-02-18T11:47:22;95833.03;;;18.19;32.59
8298;BME280;4187;42.778;23.242;2023-02-18T11:50:02;95811.38;;;18.14;32.15
8298;BME280;4187;42.778;23.242;2023-02-18T11:52:33;95806.91;;;18.29;32.27
8298;BME280;4187;42.778;23.242;2023-02-18T11:55:04;95826.00;;;18.63;32.61
8298;BME280;4187;42.778;23.242;2023-02-18T11:57:33;95817.47;;;18.82;32.64
8298;BME280;4187;42.778;23.242;2023-02-18T12:00:02;95804.81;;;18.76;31.53
8298;BME280;4187;42.778;23.242;2023-02-18T12:02:33;95823.38;;;18.78;32.02
8298;BME280;4187;42.778;23.242;2023-02-18T12:05:10;95805.56;;;18.85;32.15
8298;BME280;4187;42.778;23.242;2023-02-18T12:07:42;95802.63;;;19.09;33.18
8298;BME280;4187;42.778;23.242;2023-02-18T12:10:14;95780.72;;;19.14;32.75
8298;BME280;4187;42.778;23.242;2023-02-18T12:12:47;95802.44;;;19.25;31.39
8298;BME280;4187;42.778;23.242;2023-02-18T12:15:19;95796.41;;;19.17;31.60
8298;BME280;4187;42.778;23.242;2023-02-18T12:18:17;95792.41;;;18.98;31.80
8298;BME280;4187;42.778;23.242;2023-02-18T12:20:53;95781.78;;;18.90;31.93
8298;BME280;4187;42.778;23.242;2023-02-18T12:23:30;95785.09;;;18.77;31.77
8298;BME280;4187;42.778;23.242;2023-02-18T12:26:12;95783.06;;;18.79;32.02
8298;BME280;4187;42.778;23.242;2023-02-18T12:28:53;95753.06;;;18.55;31.66
8298;BME280;4187;42.778;23.242;2023-02-18T12:31:45;95767.69;;;18.81;31.90
8298;BME280;4187;42.778;23.242;2023-02-18T12:34:31;95770.91;;;18.77;32.11
8298;BME280;4187;42.778;23.242;2023-02-18T12:37:14;95761.88;;;18.78;31.88
8298;BME280;4187;42.778;23.242;2023-02-18T12:40:01;95757.38;;;18.78;31.88
8298;BME280;4187;42.778;23.242;2023-02-18T12:42:45;95757.63;;;18.83;31.92
8298;BME280;4187;42.778;23.242;2023-02-18T12:45:28;95754.50;;;18.94;32.07
8298;BME280;4187;42.778;23.242;2023-02-18T12:48:22;95741.22;;;19.16;31.81
8298;BME280;4187;42.778;23.242;2023-02-18T12:51:03;95730.13;;;19.19;31.87
8298;BME280;4187;42.778;23.242;2023-02-18T12:53:47;95755.38;;;19.31;31.68
8298;BME280;4187;42.778;23.242;2023-02-18T12:56:32;95751.88;;;19.30;31.54
8298;BME280;4187;42.778;23.242;2023-02-18T12:59:08;95735.59;;;19.10;31.37
8298;BME280;4187;42.778;23.242;2023-02-18T13:01:46;95730.97;;;19.04;31.46
8298;BME280;4187;42.778;23.242;2023-02-18T13:04:26;95748.88;;;19.19;31.60
8298;BME280;4187;42.778;23.242;2023-02-18T13:10:20;95751.34;;;19.35;31.16
8298;BME280;4187;42.778;23.242;2023-02-18T13:12:55;95729.50;;;19.17;31.34
8298;BME280;4187;42.778;23.242;2023-02-18T13:15:32;95746.47;;;19.38;31.29
8298;BME280;4187;42.778;23.242;2023-02-18T13:18:07;95750.72;;;19.18;31.18
8298;BME280;4187;42.778;23.242;2023-02-18T13:20:39;95749.22;;;19.01;30.79
8298;BME280;4187;42.778;23.242;2023-02-18T13:23:11;95752.94;;;19.00;31.20
8298;BME280;4187;42.778;23.242;2023-02-18T13:25:42;95745.91;;;18.99;30.81
8298;BME280;4187;42.778;23.242;2023-02-18T13:28:17;95756.31;;;18.79;30.88
8298;BME280;4187;42.778;23.242;2023-02-18T13:30:51;95759.44;;;18.68;31.18
8298;BME280;4187;42.778;23.242;2023-02-18T13:33:29;95752.91;;;18.71;31.57
8298;BME280;4187;42.778;23.242;2023-02-18T13:36:03;95755.56;;;18.56;31.98
8298;BME280;4187;42.778;23.242;2023-02-18T13:38:51;95728.22;;;18.31;31.57
8298;BME280;4187;42.778;23.242;2023-02-18T13:41:20;95761.41;;;18.37;31.63
8298;BME280;4187;42.778;23.242;2023-02-18T13:43:47;95750.50;;;18.24;31.94
8298;BME280;4187;42.778;23.242;2023-02-18T13:46:16;95739.94;;;18.08;32.34